Portland Troutdale Airport
KTTD : now visible

Airfield :











YOU CAN JOIN US ON...

 
LOGIN :

Register | Disclaimer

   EN    FR    IT 

 









Legend :    VFR   Marginal VFR   IFR   Intensive IFR   Very Intensive IFR
Visi :
Ceiling :
>= 8 km
>= 3000ft
5 to 8 km
1000 to 3000 ft
1500m to 5 km
500 to 1000 ft
800 to 1500m
200 to 500 ft
< 800m
< 200 ft
Symbols :   Thunderstorms  Fog  Heavy snow  Heavy precipitations  Wind > 20 kt






- Airport Elevation : 39 ft


KTTD - Portland Troutdale

CURRENT METAR :
  • 222153Z 26006KT 8SM CLR 27/11 A2983 RMK AO2 SLP099 T02720111

EXPIRED METARs :
  • 222053Z VRB03KT 10SM CLR 28/14 A2984 RMK AO2 SLP105 T02780139 56017
  • 221953Z VRB05KT 10SM CLR 26/14 A2986 RMK AO2 SLP109 T02610139

TAF KTTD
Valid from the 22 at 18:00 until the 23 at 18:00 UTC


221734Z 2218/2318 VRB03KT P6SM SCT150
FM222100 32005KT P6SM BKN150
FM230600 VRB04KT P6SM SCT150
FM231100 VRB04KT P6SM BKN010
FM231600 VRB04KT P6SM FEW012
KZSE FIR / North America



MET'MAP, your aeronautical weather chart ! - Copyright ORBIFLY December 2007 - Disclaimer

ORBIFLY MET'MAP TEAM :

Programming & Development : Alexandra Zaïnal
Concept & original design : Baudouin d'Aumeries
Assistance for programming : Marc-Olivier Méhu
Technical & hardware support : Manuel Goepfert

Contact : metmap@orbifly.com




SOURCES & CREDITS :

   NOAA       Earth
Advisory